createdAt,value
2022-11-30T00:00:32.582Z,3.08
2022-11-30T00:03:34.246Z,3.53
2022-11-30T00:06:41.344Z,4.18
2022-11-30T00:09:42.991Z,4.65
2022-11-30T00:12:44.818Z,5.35
2022-11-30T00:15:46.476Z,5.40
2022-11-30T00:18:48.340Z,4.97
2022-11-30T00:21:51.416Z,4.40
2022-11-30T00:24:52.996Z,5.35
2022-11-30T00:27:54.768Z,5.05
2022-11-30T00:31:00.223Z,4.60
2022-11-30T00:34:01.942Z,5.03
2022-11-30T00:37:04.981Z,4.97
2022-11-30T00:40:07.536Z,5.00
2022-11-30T00:43:09.132Z,3.70
2022-11-30T00:46:11.952Z,5.13
2022-11-30T00:49:13.722Z,4.63
2022-11-30T00:52:16.705Z,4.82
2022-11-30T00:55:18.580Z,4.10
2022-11-30T00:58:20.294Z,4.43
2022-11-30T01:01:22.091Z,4.68
2022-11-30T01:04:23.866Z,4.50
2022-11-30T01:07:27.058Z,4.03
2022-11-30T01:10:28.908Z,4.97
2022-11-30T01:13:30.551Z,4.85
2022-11-30T01:16:33.986Z,4.65
2022-11-30T01:19:35.665Z,4.78
2022-11-30T01:22:38.720Z,4.80
2022-11-30T01:25:40.469Z,4.25
2022-11-30T01:28:44.257Z,5.22
2022-11-30T01:31:45.890Z,5.13
2022-11-30T01:34:47.897Z,5.28
2022-11-30T01:37:51.007Z,5.13
2022-11-30T01:40:52.685Z,5.03
2022-11-30T01:43:56.401Z,5.38
2022-11-30T01:47:00.898Z,5.13
2022-11-30T01:50:05.699Z,6.00
2022-11-30T01:53:10.816Z,6.45
2022-11-30T01:56:13.331Z,5.20
2022-11-30T01:59:16.987Z,4.97
2022-11-30T02:02:24.452Z,6.25
2022-11-30T02:05:26.957Z,6.05
2022-11-30T02:08:31.661Z,6.20
2022-11-30T02:11:33.794Z,5.07
2022-11-30T02:14:40.755Z,6.20
2022-11-30T02:17:51.750Z,6.55
2022-11-30T02:21:04.842Z,6.45
2022-11-30T02:24:23.282Z,4.95
2022-11-30T02:27:43.737Z,5.45
2022-11-30T02:30:52.274Z,5.82
2022-11-30T02:33:56.803Z,5.65
2022-11-30T02:37:01.099Z,4.70
2022-11-30T02:40:08.316Z,5.00
2022-11-30T02:43:10.166Z,5.10
2022-11-30T02:46:18.142Z,5.75
2022-11-30T02:49:28.674Z,4.32
2022-11-30T02:52:32.061Z,4.35
2022-11-30T02:55:33.978Z,5.10
2022-11-30T02:58:35.869Z,4.75
2022-11-30T03:01:40.118Z,3.78
2022-11-30T03:04:41.824Z,4.82
2022-11-30T03:07:43.608Z,4.97
2022-11-30T03:10:45.253Z,4.68
2022-11-30T03:13:46.879Z,4.57
2022-11-30T03:16:49.932Z,5.55
2022-11-30T03:19:51.562Z,4.47
2022-11-30T03:22:53.319Z,4.68
2022-11-30T03:25:57.558Z,4.82
2022-11-30T03:28:59.246Z,4.50
2022-11-30T03:32:02.343Z,5.07
2022-11-30T03:35:04.597Z,4.57
2022-11-30T03:38:06.385Z,4.47
2022-11-30T03:41:10.898Z,4.65
2022-11-30T03:44:12.562Z,4.30
2022-11-30T03:47:15.550Z,5.03
2022-11-30T03:50:17.348Z,3.67
2022-11-30T03:53:20.722Z,5.35
2022-11-30T03:56:22.530Z,4.30
2022-11-30T03:59:42.856Z,5.00
2022-11-30T04:02:45.996Z,4.85
2022-11-30T04:05:47.770Z,4.32
2022-11-30T04:08:49.753Z,4.28
2022-11-30T04:11:51.529Z,4.10
2022-11-30T04:14:53.152Z,4.40
2022-11-30T04:17:56.427Z,4.88
2022-11-30T04:20:59.957Z,4.45
2022-11-30T04:24:01.875Z,4.45
2022-11-30T04:27:03.540Z,4.57
2022-11-30T04:30:06.720Z,4.47
2022-11-30T04:33:10.554Z,5.50
2022-11-30T04:36:19.586Z,5.50
2022-11-30T04:39:21.243Z,5.32
2022-11-30T04:42:23.030Z,5.05
2022-11-30T04:45:24.610Z,4.93
2022-11-30T04:48:27.727Z,4.90
2022-11-30T04:51:29.391Z,5.32
2022-11-30T04:54:31.239Z,4.25
2022-11-30T04:57:32.920Z,4.60
2022-11-30T05:00:35.480Z,5.13
2022-11-30T05:03:38.514Z,4.78
2022-11-30T05:06:40.235Z,3.78
2022-11-30T05:09:41.871Z,5.30
2022-11-30T05:12:43.587Z,5.20
2022-11-30T05:15:45.706Z,4.97
2022-11-30T05:18:48.782Z,5.68
2022-11-30T05:21:50.507Z,5.10
2022-11-30T05:24:52.271Z,4.28
2022-11-30T05:27:54.104Z,4.38
2022-11-30T05:30:55.821Z,4.15
2022-11-30T05:33:59.314Z,4.57
2022-11-30T05:37:01.226Z,4.55
2022-11-30T05:40:03.080Z,5.05
2022-11-30T05:43:05.530Z,4.95
2022-11-30T05:46:08.850Z,4.60
2022-11-30T05:49:11.910Z,4.35
2022-11-30T05:52:13.660Z,4.43
2022-11-30T05:55:16.070Z,4.22
2022-11-30T05:58:17.895Z,4.35
2022-11-30T06:01:21.370Z,4.53
2022-11-30T06:04:24.656Z,4.85
2022-11-30T06:07:26.356Z,4.57
2022-11-30T06:10:28.205Z,4.65
2022-11-30T06:13:32.469Z,5.18
2022-11-30T06:16:34.476Z,4.80
2022-11-30T06:19:37.566Z,5.15
2022-11-30T06:22:39.235Z,5.22
2022-11-30T06:25:40.872Z,4.35
2022-11-30T06:28:46.719Z,4.57
2022-11-30T06:31:50.124Z,4.88
2022-11-30T06:34:53.434Z,5.10
2022-11-30T06:37:55.209Z,4.60
2022-11-30T06:41:03.626Z,4.30
2022-11-30T06:44:08.157Z,4.20
2022-11-30T06:47:09.804Z,4.88
2022-11-30T06:50:14.141Z,5.07
2022-11-30T06:53:15.802Z,6.47
2022-11-30T06:56:17.593Z,4.78
2022-11-30T06:59:19.204Z,5.55
2022-11-30T07:02:20.982Z,5.05
2022-11-30T07:05:24.055Z,6.00
2022-11-30T07:08:25.971Z,5.88
2022-11-30T07:11:27.788Z,6.30
2022-11-30T07:14:30.892Z,6.22
2022-11-30T07:17:32.553Z,5.80
2022-11-30T07:20:35.611Z,5.45
2022-11-30T07:23:57.219Z,5.60
2022-11-30T07:26:59.975Z,5.15
2022-11-30T07:30:01.897Z,6.15
2022-11-30T07:33:03.729Z,5.00
2022-11-30T07:36:07.498Z,5.45
2022-11-30T07:39:09.228Z,5.32
2022-11-30T07:42:10.944Z,4.80
2022-11-30T07:45:12.711Z,5.20
2022-11-30T07:48:14.434Z,6.05
2022-11-30T07:51:19.925Z,5.60
2022-11-30T07:54:21.721Z,5.55
2022-11-30T07:57:23.532Z,6.00
2022-11-30T08:00:25.375Z,5.25
2022-11-30T08:03:29.294Z,5.25
2022-11-30T08:06:35.388Z,5.32
2022-11-30T08:09:37.152Z,5.15
2022-11-30T08:12:38.822Z,5.93
2022-11-30T08:15:40.530Z,6.13
2022-11-30T08:18:43.261Z,5.63
2022-11-30T08:21:46.310Z,6.57
2022-11-30T08:24:48.266Z,5.70
2022-11-30T08:27:50.237Z,6.20
2022-11-30T08:30:52.071Z,5.40
2022-11-30T08:33:58.281Z,5.45
2022-11-30T08:37:01.343Z,4.93
2022-11-30T08:40:03.707Z,5.50
2022-11-30T08:43:05.357Z,5.68
2022-11-30T08:46:34.569Z,5.40
2022-11-30T08:49:30.946Z,5.57
2022-11-30T08:52:33.941Z,5.72
2022-11-30T08:55:35.640Z,5.68
2022-11-30T08:58:39.294Z,6.50
2022-11-30T09:01:42.570Z,6.18
2022-11-30T09:04:44.652Z,5.43
2022-11-30T09:07:47.732Z,4.88
2022-11-30T09:10:49.472Z,6.28
2022-11-30T09:13:53.559Z,5.75
2022-11-30T09:16:55.355Z,5.35
2022-11-30T09:19:57.207Z,7.65
2022-11-30T09:23:00.845Z,5.28
2022-11-30T09:26:05.990Z,5.30
2022-11-30T09:29:07.738Z,5.45
2022-11-30T09:32:09.584Z,5.30
2022-11-30T09:35:12.919Z,5.38
2022-11-30T09:38:16.345Z,4.47
2022-11-30T09:41:48.120Z,4.82
2022-11-30T09:44:58.802Z,5.28
2022-11-30T09:48:25.526Z,4.90
2022-11-30T09:51:36.303Z,5.28
2022-11-30T09:54:42.526Z,4.65
2022-11-30T09:57:47.319Z,6.13
2022-11-30T10:00:49.029Z,6.00
2022-11-30T10:03:50.821Z,5.50
2022-11-30T10:07:02.562Z,4.57
2022-11-30T10:10:31.772Z,5.07
2022-11-30T10:13:51.324Z,4.80
2022-11-30T10:17:01.330Z,5.32
2022-11-30T10:20:16.073Z,5.20
2022-11-30T10:23:39.653Z,4.50
2022-11-30T10:26:52.898Z,5.22
2022-11-30T10:29:55.500Z,5.07
2022-11-30T10:33:05.221Z,4.65
2022-11-30T10:36:13.572Z,7.18
2022-11-30T10:39:21.691Z,5.18
2022-11-30T10:42:30.854Z,5.38
2022-11-30T10:45:33.991Z,4.45
2022-11-30T10:48:43.175Z,4.40
2022-11-30T10:51:53.334Z,4.35
2022-11-30T10:55:02.193Z,4.70
2022-11-30T10:58:22.524Z,4.63
2022-11-30T11:01:33.892Z,4.88
2022-11-30T11:04:35.670Z,4.65
2022-11-30T11:07:48.086Z,4.60
2022-11-30T11:10:51.494Z,5.18
2022-11-30T11:14:08.953Z,5.80
2022-11-30T11:17:22.867Z,4.50
2022-11-30T11:20:31.265Z,4.28
2022-11-30T11:23:35.859Z,4.60
2022-11-30T11:26:37.700Z,4.38
2022-11-30T11:29:40.894Z,4.13
2022-11-30T11:32:57.910Z,4.03
2022-11-30T11:36:14.387Z,4.53
2022-11-30T11:39:25.874Z,3.95
2022-11-30T11:42:30.829Z,3.70
2022-11-30T11:45:37.627Z,3.70
2022-11-30T11:48:41.885Z,4.05
2022-11-30T11:51:45.597Z,4.15
2022-11-30T11:54:51.397Z,4.15
2022-11-30T11:57:56.168Z,3.90
2022-11-30T12:01:31.452Z,4.90
2022-11-30T12:04:42.556Z,3.38
2022-11-30T12:07:57.564Z,4.13
2022-11-30T12:11:02.876Z,3.58
2022-11-30T12:14:12.473Z,3.53
2022-11-30T12:17:34.694Z,3.88
2022-11-30T12:20:49.345Z,4.18
2022-11-30T12:24:29.602Z,3.78
2022-11-30T12:27:42.535Z,4.25
2022-11-30T12:31:12.207Z,4.15
2022-11-30T12:34:25.496Z,3.40
2022-11-30T12:37:43.018Z,2.63
2022-11-30T12:40:58.989Z,3.05
2022-11-30T12:44:15.711Z,2.53
2022-11-30T12:47:31.873Z,2.53
2022-11-30T12:50:45.751Z,2.80
2022-11-30T12:53:55.770Z,2.83
2022-11-30T12:57:05.925Z,3.35
2022-11-30T13:00:13.739Z,2.20
2022-11-30T13:03:46.957Z,2.25
2022-11-30T13:06:55.888Z,2.53
2022-11-30T13:10:02.424Z,2.25
2022-11-30T13:13:06.278Z,1.95
2022-11-30T13:16:09.382Z,1.83
2022-11-30T13:19:29.561Z,1.75
2022-11-30T13:22:45.360Z,2.15
2022-11-30T13:26:10.151Z,2.38
2022-11-30T13:29:27.560Z,2.20
2022-11-30T13:35:55.144Z,1.98
2022-11-30T13:39:26.204Z,2.03
2022-11-30T13:42:43.007Z,2.10
2022-11-30T13:45:47.985Z,1.85
2022-11-30T13:49:08.778Z,2.45
2022-11-30T13:52:27.958Z,1.73
2022-11-30T13:55:56.701Z,2.15
2022-11-30T13:59:44.428Z,2.45
2022-11-30T14:02:54.065Z,1.92
2022-11-30T14:05:56.723Z,2.25
2022-11-30T14:08:58.456Z,2.10
2022-11-30T14:12:54.572Z,1.98
2022-11-30T14:15:59.731Z,2.65
2022-11-30T14:19:05.419Z,2.25
2022-11-30T14:22:11.735Z,2.50
2022-11-30T14:25:16.399Z,2.05
2022-11-30T14:28:23.460Z,2.63
2022-11-30T14:31:29.206Z,2.00
2022-11-30T14:34:36.368Z,2.67
2022-11-30T14:37:43.380Z,2.17
2022-11-30T14:40:50.416Z,1.92
2022-11-30T14:44:01.885Z,2.10
2022-11-30T14:47:14.555Z,1.60
2022-11-30T14:50:23.718Z,2.13
2022-11-30T14:53:35.992Z,1.73
2022-11-30T14:56:44.644Z,1.90
2022-11-30T14:59:50.806Z,1.75
2022-11-30T15:02:52.931Z,1.85
2022-11-30T15:05:57.344Z,2.20
2022-11-30T15:09:01.383Z,2.80
2022-11-30T15:12:03.405Z,1.80
2022-11-30T15:15:14.699Z,2.03
2022-11-30T15:33:34.551Z,2.10
2022-11-30T15:36:38.390Z,2.17
2022-11-30T15:39:44.700Z,2.10
2022-11-30T15:42:49.128Z,3.47
2022-11-30T15:45:53.987Z,2.80
2022-11-30T15:49:06.929Z,2.70
2022-11-30T15:52:17.239Z,3.10
2022-11-30T15:55:40.408Z,2.95
2022-11-30T15:58:59.012Z,2.63
2022-11-30T16:02:04.841Z,2.58
2022-11-30T16:05:24.412Z,2.70
2022-11-30T16:08:26.963Z,2.60
2022-11-30T16:11:28.859Z,2.58
2022-11-30T16:14:30.626Z,2.95
2022-11-30T16:17:32.912Z,2.75
2022-11-30T16:20:36.015Z,2.80
2022-11-30T16:23:38.160Z,2.97
2022-11-30T16:26:55.377Z,2.75
2022-11-30T16:32:59.570Z,3.97
2022-11-30T16:36:08.140Z,4.55
2022-11-30T16:39:12.216Z,4.03
2022-11-30T16:42:14.164Z,3.88
2022-11-30T16:45:19.552Z,3.55
2022-11-30T16:48:21.407Z,3.95
2022-11-30T16:51:27.399Z,3.47
2022-11-30T16:54:29.310Z,4.13
2022-11-30T16:57:31.075Z,4.30
2022-11-30T17:00:33.481Z,4.35
2022-11-30T17:03:35.937Z,3.80
2022-11-30T17:06:38.955Z,4.88
2022-11-30T17:09:40.740Z,4.70
2022-11-30T17:12:42.601Z,4.65
2022-11-30T17:15:45.063Z,4.03
2022-11-30T17:18:46.903Z,3.05
2022-11-30T17:21:50.798Z,4.00
2022-11-30T17:24:52.553Z,3.65
2022-11-30T17:27:54.346Z,3.47
2022-11-30T17:30:56.205Z,3.55
2022-11-30T17:33:57.965Z,3.20
2022-11-30T17:37:01.164Z,3.40
2022-11-30T17:40:04.099Z,3.50
2022-11-30T17:43:05.777Z,2.67
2022-11-30T17:46:09.843Z,3.55
2022-11-30T17:49:11.863Z,4.20
2022-11-30T17:52:15.018Z,3.70
2022-11-30T17:55:16.929Z,3.60
2022-11-30T17:58:18.586Z,3.53
2022-11-30T18:01:22.478Z,4.53
2022-11-30T18:04:24.764Z,3.85
2022-11-30T18:07:28.098Z,3.95
2022-11-30T18:10:29.878Z,3.80
2022-11-30T18:13:31.670Z,3.70
2022-11-30T18:16:38.402Z,3.47
2022-11-30T18:19:40.515Z,3.05
2022-11-30T18:22:43.730Z,3.55
2022-11-30T18:25:45.581Z,3.03
2022-11-30T18:28:51.349Z,2.80
2022-11-30T18:31:53.302Z,3.00
2022-11-30T18:34:55.235Z,2.97
2022-11-30T18:37:58.654Z,3.63
2022-11-30T18:41:00.537Z,4.45
2022-11-30T18:44:02.381Z,2.80
2022-11-30T18:47:04.346Z,2.60
2022-11-30T18:50:07.118Z,3.03
2022-11-30T18:53:13.857Z,2.83
2022-11-30T18:56:20.881Z,2.70
2022-11-30T18:59:22.630Z,2.70
2022-11-30T19:02:24.368Z,3.08
2022-11-30T19:05:32.042Z,3.88
2022-11-30T19:08:35.411Z,2.97
2022-11-30T19:11:38.311Z,2.85
2022-11-30T19:14:42.761Z,2.50
2022-11-30T19:17:44.397Z,2.33
2022-11-30T19:20:46.465Z,3.05
2022-11-30T19:23:50.060Z,2.80
2022-11-30T19:26:51.746Z,3.13
2022-11-30T19:29:53.444Z,2.63
2022-11-30T19:32:55.122Z,2.60
2022-11-30T19:36:01.037Z,2.88
2022-11-30T19:39:04.093Z,3.20
2022-11-30T19:42:07.120Z,2.80
2022-11-30T19:45:09.671Z,2.60
2022-11-30T19:48:11.442Z,2.53
2022-11-30T19:51:18.106Z,2.97
2022-11-30T19:54:21.713Z,2.83
2022-11-30T19:57:23.352Z,2.30
2022-11-30T20:00:25.186Z,3.13
2022-11-30T20:03:26.925Z,3.05
2022-11-30T20:06:32.396Z,3.05
2022-11-30T20:09:35.676Z,2.65
2022-11-30T20:12:37.361Z,3.60
2022-11-30T20:15:39.623Z,2.30
2022-11-30T20:18:45.953Z,3.05
2022-11-30T20:21:48.270Z,3.05
2022-11-30T20:24:51.326Z,3.30
2022-11-30T20:27:53.067Z,2.58
2022-11-30T20:30:55.327Z,2.45
2022-11-30T20:33:57.931Z,2.78
2022-11-30T20:36:59.646Z,1.80
2022-11-30T20:40:02.785Z,2.67
2022-11-30T20:43:04.681Z,2.60
2022-11-30T20:46:14.069Z,2.72
2022-11-30T20:49:17.878Z,3.00
2022-11-30T20:52:19.684Z,2.33
2022-11-30T20:55:23.505Z,2.33
2022-11-30T20:58:25.494Z,2.28
2022-11-30T21:01:28.029Z,2.35
2022-11-30T21:04:29.875Z,2.40
2022-11-30T21:07:31.647Z,2.00
2022-11-30T21:10:38.683Z,1.85
2022-11-30T21:13:41.923Z,2.20
2022-11-30T21:16:44.111Z,1.88
2022-11-30T21:19:45.974Z,2.95
2022-11-30T21:22:47.724Z,2.85
2022-11-30T21:25:50.759Z,2.40
2022-11-30T21:28:54.460Z,2.58
2022-11-30T21:31:56.550Z,2.22
2022-11-30T21:34:58.409Z,2.83
2022-11-30T21:38:00.224Z,2.30
2022-11-30T21:41:04.703Z,2.78
2022-11-30T21:44:09.675Z,2.35
2022-11-30T21:47:13.653Z,2.28
2022-11-30T21:50:15.456Z,2.15
2022-11-30T21:53:17.218Z,1.90
2022-11-30T21:56:22.588Z,2.25
2022-11-30T21:59:24.350Z,2.03
2022-11-30T22:02:26.183Z,2.20
2022-11-30T22:05:27.912Z,2.83
2022-11-30T22:08:30.444Z,2.40
2022-11-30T22:11:34.851Z,2.10
2022-11-30T22:14:36.581Z,2.40
2022-11-30T22:17:38.249Z,1.80
2022-11-30T22:20:39.879Z,2.38
2022-11-30T22:23:44.009Z,2.33
2022-11-30T22:26:49.015Z,2.35
2022-11-30T22:32:53.121Z,2.20
2022-11-30T22:35:54.751Z,2.05
2022-11-30T22:38:58.621Z,2.75
2022-11-30T22:42:01.655Z,2.28
2022-11-30T22:45:03.756Z,2.70
2022-11-30T22:48:05.841Z,2.28
2022-11-30T22:51:09.701Z,2.38
2022-11-30T22:54:11.729Z,2.92
2022-11-30T22:57:14.754Z,3.58
2022-11-30T23:00:16.998Z,2.90
2022-11-30T23:03:18.821Z,3.47
2022-11-30T23:06:21.209Z,2.63
2022-11-30T23:09:25.523Z,2.90
2022-11-30T23:12:57.357Z,2.65
2022-11-30T23:15:50.798Z,2.60
2022-11-30T23:18:55.388Z,3.13
2022-11-30T23:21:57.019Z,2.90
2022-11-30T23:24:58.831Z,2.78
2022-11-30T23:28:01.951Z,2.83
2022-11-30T23:31:03.801Z,2.85
2022-11-30T23:34:07.652Z,2.88
2022-11-30T23:37:09.339Z,2.65
2022-11-30T23:40:12.129Z,3.45
2022-11-30T23:43:15.192Z,2.40
2022-11-30T23:46:17.306Z,2.60
2022-11-30T23:49:19.019Z,3.20
2022-11-30T23:52:20.678Z,3.13
2022-11-30T23:55:22.369Z,2.75
2022-11-30T23:58:25.345Z,4.03
